sensor_id;sensor_type;location;lat;lon;timestamp;temperature;humidity
5802;DHT22;2927;49.366;8.530;2023-09-19T00:00:43;16.60;99.90
5802;DHT22;2927;49.366;8.530;2023-09-19T00:03:12;16.50;99.90
5802;DHT22;2927;49.366;8.530;2023-09-19T00:05:38;16.50;99.90
5802;DHT22;2927;49.366;8.530;2023-09-19T00:08:05;16.50;99.90
5802;DHT22;2927;49.366;8.530;2023-09-19T00:10:32;16.40;99.90
5802;DHT22;2927;49.366;8.530;2023-09-19T00:13:01;16.40;99.90
5802;DHT22;2927;49.366;8.530;2023-09-19T00:15:31;16.40;99.90
5802;DHT22;2927;49.366;8.530;2023-09-19T00:17:58;16.40;99.90
5802;DHT22;2927;49.366;8.530;2023-09-19T00:20:24;16.40;99.90
5802;DHT22;2927;49.366;8.530;2023-09-19T00:22:50;16.30;99.90
5802;DHT22;2927;49.366;8.530;2023-09-19T00:25:20;16.30;99.90
5802;DHT22;2927;49.366;8.530;2023-09-19T00:27:46;16.30;99.90
5802;DHT22;2927;49.366;8.530;2023-09-19T00:30:13;16.20;99.90
5802;DHT22;2927;49.366;8.530;2023-09-19T00:32:48;16.20;99.90
5802;DHT22;2927;49.366;8.530;2023-09-19T00:35:15;16.20;99.90
5802;DHT22;2927;49.366;8.530;2023-09-19T00:37:41;16.20;99.90
5802;DHT22;2927;49.366;8.530;2023-09-19T00:40:10;16.20;99.90
5802;DHT22;2927;49.366;8.530;2023-09-19T00:42:42;16.20;99.90
5802;DHT22;2927;49.366;8.530;2023-09-19T00:45:09;16.10;99.90
5802;DHT22;2927;49.366;8.530;2023-09-19T00:47:38;16.10;99.90
5802;DHT22;2927;49.366;8.530;2023-09-19T00:50:05;16.10;99.90
5802;DHT22;2927;49.366;8.530;2023-09-19T00:52:37;16.10;99.90
5802;DHT22;2927;49.366;8.530;2023-09-19T00:55:08;16.10;99.90
5802;DHT22;2927;49.366;8.530;2023-09-19T00:57:36;16.10;99.90
5802;DHT22;2927;49.366;8.530;2023-09-19T01:00:03;16.10;99.90
5802;DHT22;2927;49.366;8.530;2023-09-19T01:02:33;16.10;99.90
5802;DHT22;2927;49.366;8.530;2023-09-19T01:04:59;16.10;99.90
5802;DHT22;2927;49.366;8.530;2023-09-19T01:07:30;16.10;99.90
5802;DHT22;2927;49.366;8.530;2023-09-19T01:10:03;16.10;99.90
5802;DHT22;2927;49.366;8.530;2023-09-19T01:15:32;16.20;99.90
5802;DHT22;2927;49.366;8.530;2023-09-19T01:18:11;16.20;99.90
5802;DHT22;2927;49.366;8.530;2023-09-19T01:20:50;16.30;99.90
5802;DHT22;2927;49.366;8.530;2023-09-19T01:23:48;16.30;99.90
5802;DHT22;2927;49.366;8.530;2023-09-19T01:26:28;16.30;99.90
5802;DHT22;2927;49.366;8.530;2023-09-19T01:32:06;16.20;99.90
5802;DHT22;2927;49.366;8.530;2023-09-19T01:34:54;16.20;99.90
5802;DHT22;2927;49.366;8.530;2023-09-19T01:37:22;16.20;99.90
5802;DHT22;2927;49.366;8.530;2023-09-19T01:42:57;16.20;99.90
5802;DHT22;2927;49.366;8.530;2023-09-19T01:45:43;16.20;99.90
5802;DHT22;2927;49.366;8.530;2023-09-19T01:51:20;16.10;99.90
5802;DHT22;2927;49.366;8.530;2023-09-19T01:54:00;16.10;99.90
5802;DHT22;2927;49.366;8.530;2023-09-19T01:56:33;16.10;99.90
5802;DHT22;2927;49.366;8.530;2023-09-19T01:59:06;16.20;99.90
5802;DHT22;2927;49.366;8.530;2023-09-19T02:01:34;16.20;99.90
5802;DHT22;2927;49.366;8.530;2023-09-19T02:04:02;16.20;99.90
5802;DHT22;2927;49.366;8.530;2023-09-19T02:06:28;16.20;99.90
5802;DHT22;2927;49.366;8.530;2023-09-19T02:08:54;16.30;99.90
5802;DHT22;2927;49.366;8.530;2023-09-19T02:11:21;16.30;99.90
5802;DHT22;2927;49.366;8.530;2023-09-19T02:13:46;16.30;99.90
5802;DHT22;2927;49.366;8.530;2023-09-19T02:16:12;16.30;99.90
5802;DHT22;2927;49.366;8.530;2023-09-19T02:18:39;16.40;99.90
5802;DHT22;2927;49.366;8.530;2023-09-19T02:21:04;16.40;99.90
5802;DHT22;2927;49.366;8.530;2023-09-19T02:23:32;16.40;99.90
5802;DHT22;2927;49.366;8.530;2023-09-19T02:25:59;16.40;99.90
5802;DHT22;2927;49.366;8.530;2023-09-19T02:28:27;16.40;99.90
5802;DHT22;2927;49.366;8.530;2023-09-19T02:30:58;16.40;99.90
5802;DHT22;2927;49.366;8.530;2023-09-19T02:33:23;16.40;99.90
5802;DHT22;2927;49.366;8.530;2023-09-19T02:35:49;16.40;99.90
5802;DHT22;2927;49.366;8.530;2023-09-19T02:38:15;16.50;99.90
5802;DHT22;2927;49.366;8.530;2023-09-19T02:40:46;16.50;99.90
5802;DHT22;2927;49.366;8.530;2023-09-19T02:43:12;16.50;99.90
5802;DHT22;2927;49.366;8.530;2023-09-19T02:45:37;16.50;99.90
5802;DHT22;2927;49.366;8.530;2023-09-19T02:48:04;16.60;99.90
5802;DHT22;2927;49.366;8.530;2023-09-19T02:50:30;16.60;99.90
5802;DHT22;2927;49.366;8.530;2023-09-19T02:52:55;16.60;99.90
5802;DHT22;2927;49.366;8.530;2023-09-19T02:55:21;16.60;99.90
5802;DHT22;2927;49.366;8.530;2023-09-19T03:00:13;16.60;99.90
5802;DHT22;2927;49.366;8.530;2023-09-19T03:02:39;16.50;99.90
5802;DHT22;2927;49.366;8.530;2023-09-19T03:05:07;16.50;99.90
5802;DHT22;2927;49.366;8.530;2023-09-19T03:07:33;16.50;99.90
5802;DHT22;2927;49.366;8.530;2023-09-19T03:09:59;16.50;99.90
5802;DHT22;2927;49.366;8.530;2023-09-19T03:12:26;16.40;99.90
5802;DHT22;2927;49.366;8.530;2023-09-19T03:14:52;16.40;99.90
5802;DHT22;2927;49.366;8.530;2023-09-19T03:17:17;16.30;99.90
5802;DHT22;2927;49.366;8.530;2023-09-19T03:19:45;16.30;99.90
5802;DHT22;2927;49.366;8.530;2023-09-19T03:22:11;16.20;99.90
5802;DHT22;2927;49.366;8.530;2023-09-19T03:24:37;16.20;99.90
5802;DHT22;2927;49.366;8.530;2023-09-19T03:27:03;16.20;99.90
5802;DHT22;2927;49.366;8.530;2023-09-19T03:29:29;16.20;99.90
5802;DHT22;2927;49.366;8.530;2023-09-19T03:31:55;16.20;99.90
5802;DHT22;2927;49.366;8.530;2023-09-19T03:34:21;16.20;99.90
5802;DHT22;2927;49.366;8.530;2023-09-19T03:36:47;16.10;99.90
5802;DHT22;2927;49.366;8.530;2023-09-19T03:39:13;16.10;99.90
5802;DHT22;2927;49.366;8.530;2023-09-19T03:41:41;16.10;99.90
5802;DHT22;2927;49.366;8.530;2023-09-19T03:44:07;16.00;99.90
5802;DHT22;2927;49.366;8.530;2023-09-19T03:46:32;16.00;99.90
5802;DHT22;2927;49.366;8.530;2023-09-19T03:48:59;16.00;99.90
5802;DHT22;2927;49.366;8.530;2023-09-19T03:51:25;15.90;99.90
5802;DHT22;2927;49.366;8.530;2023-09-19T03:53:51;15.90;99.90
5802;DHT22;2927;49.366;8.530;2023-09-19T03:56:17;15.90;99.90
5802;DHT22;2927;49.366;8.530;2023-09-19T03:58:42;15.90;99.90
5802;DHT22;2927;49.366;8.530;2023-09-19T04:01:08;15.80;99.90
5802;DHT22;2927;49.366;8.530;2023-09-19T04:03:34;15.80;99.90
5802;DHT22;2927;49.366;8.530;2023-09-19T04:06:11;15.70;99.90
5802;DHT22;2927;49.366;8.530;2023-09-19T04:08:40;15.70;99.90
5802;DHT22;2927;49.366;8.530;2023-09-19T04:11:06;15.80;99.90
5802;DHT22;2927;49.366;8.530;2023-09-19T04:13:31;15.70;99.90
5802;DHT22;2927;49.366;8.530;2023-09-19T04:15:57;15.60;99.90
5802;DHT22;2927;49.366;8.530;2023-09-19T04:18:23;15.60;99.90
5802;DHT22;2927;49.366;8.530;2023-09-19T04:20:51;15.60;99.90
5802;DHT22;2927;49.366;8.530;2023-09-19T04:23:17;15.60;99.90
5802;DHT22;2927;49.366;8.530;2023-09-19T04:25:45;15.50;99.90
5802;DHT22;2927;49.366;8.530;2023-09-19T04:28:11;15.50;99.90
5802;DHT22;2927;49.366;8.530;2023-09-19T04:30:39;15.50;99.90
5802;DHT22;2927;49.366;8.530;2023-09-19T04:33:08;15.50;99.90
5802;DHT22;2927;49.366;8.530;2023-09-19T04:35:34;15.50;99.90
5802;DHT22;2927;49.366;8.530;2023-09-19T04:38:00;15.40;99.90
5802;DHT22;2927;49.366;8.530;2023-09-19T04:40:26;15.50;99.90
5802;DHT22;2927;49.366;8.530;2023-09-19T04:42:58;15.40;99.90
5802;DHT22;2927;49.366;8.530;2023-09-19T04:45:27;15.40;99.90
5802;DHT22;2927;49.366;8.530;2023-09-19T04:47:54;15.40;99.90
5802;DHT22;2927;49.366;8.530;2023-09-19T04:50:21;15.40;99.90
5802;DHT22;2927;49.366;8.530;2023-09-19T04:52:51;15.40;99.90
5802;DHT22;2927;49.366;8.530;2023-09-19T04:55:18;15.40;99.90
5802;DHT22;2927;49.366;8.530;2023-09-19T04:57:48;15.40;99.90
5802;DHT22;2927;49.366;8.530;2023-09-19T05:00:15;15.40;99.90
5802;DHT22;2927;49.366;8.530;2023-09-19T05:02:42;15.40;99.90
5802;DHT22;2927;49.366;8.530;2023-09-19T05:05:09;15.40;99.90
5802;DHT22;2927;49.366;8.530;2023-09-19T05:07:42;15.40;99.90
5802;DHT22;2927;49.366;8.530;2023-09-19T05:10:08;15.30;99.90
5802;DHT22;2927;49.366;8.530;2023-09-19T05:12:35;15.30;99.90
5802;DHT22;2927;49.366;8.530;2023-09-19T05:15:05;15.30;99.90
5802;DHT22;2927;49.366;8.530;2023-09-19T05:17:33;15.30;99.90
5802;DHT22;2927;49.366;8.530;2023-09-19T05:20:00;15.40;99.90
5802;DHT22;2927;49.366;8.530;2023-09-19T05:22:38;15.40;99.90
5802;DHT22;2927;49.366;8.530;2023-09-19T05:25:06;15.40;99.90
5802;DHT22;2927;49.366;8.530;2023-09-19T05:27:32;15.50;99.90
5802;DHT22;2927;49.366;8.530;2023-09-19T05:29:59;15.50;99.90
5802;DHT22;2927;49.366;8.530;2023-09-19T05:32:25;15.60;99.90
5802;DHT22;2927;49.366;8.530;2023-09-19T05:34:50;15.70;99.90
5802;DHT22;2927;49.366;8.530;2023-09-19T05:37:19;15.70;99.90
5802;DHT22;2927;49.366;8.530;2023-09-19T05:39:45;15.80;99.90
5802;DHT22;2927;49.366;8.530;2023-09-19T05:42:11;15.80;99.90
5802;DHT22;2927;49.366;8.530;2023-09-19T05:44:37;15.80;99.90
5802;DHT22;2927;49.366;8.530;2023-09-19T05:47:03;15.80;99.90
5802;DHT22;2927;49.366;8.530;2023-09-19T05:49:29;15.80;99.90
5802;DHT22;2927;49.366;8.530;2023-09-19T05:51:56;15.80;99.90
5802;DHT22;2927;49.366;8.530;2023-09-19T05:54:24;15.90;99.90
5802;DHT22;2927;49.366;8.530;2023-09-19T05:56:50;16.00;99.90
5802;DHT22;2927;49.366;8.530;2023-09-19T05:59:19;16.10;99.90
5802;DHT22;2927;49.366;8.530;2023-09-19T06:01:45;16.20;99.90
5802;DHT22;2927;49.366;8.530;2023-09-19T06:04:12;16.30;99.90
5802;DHT22;2927;49.366;8.530;2023-09-19T06:06:38;16.60;99.90
5802;DHT22;2927;49.366;8.530;2023-09-19T06:09:06;17.00;99.90
5802;DHT22;2927;49.366;8.530;2023-09-19T06:11:36;17.30;99.90
5802;DHT22;2927;49.366;8.530;2023-09-19T06:14:03;17.60;74.10
5802;DHT22;2927;49.366;8.530;2023-09-19T06:16:29;17.70;43.70
5802;DHT22;2927;49.366;8.530;2023-09-19T06:18:55;17.80;1.00
5802;DHT22;2927;49.366;8.530;2023-09-19T06:21:22;17.90;1.00
5802;DHT22;2927;49.366;8.530;2023-09-19T06:23:48;18.10;1.00
5802;DHT22;2927;49.366;8.530;2023-09-19T06:26:14;18.30;1.00
5802;DHT22;2927;49.366;8.530;2023-09-19T06:28:40;18.50;1.00
5802;DHT22;2927;49.366;8.530;2023-09-19T06:31:06;18.80;1.00
5802;DHT22;2927;49.366;8.530;2023-09-19T06:33:36;18.80;1.00
5802;DHT22;2927;49.366;8.530;2023-09-19T06:36:05;18.70;1.00
5802;DHT22;2927;49.366;8.530;2023-09-19T06:38:31;18.60;1.00
5802;DHT22;2927;49.366;8.530;2023-09-19T06:40:59;18.60;1.00
5802;DHT22;2927;49.366;8.530;2023-09-19T06:43:26;18.60;1.00
5802;DHT22;2927;49.366;8.530;2023-09-19T06:45:54;18.70;1.00
5802;DHT22;2927;49.366;8.530;2023-09-19T06:48:20;19.00;1.00
5802;DHT22;2927;49.366;8.530;2023-09-19T06:50:46;19.10;99.90
5802;DHT22;2927;49.366;8.530;2023-09-19T06:53:13;19.10;99.90
5802;DHT22;2927;49.366;8.530;2023-09-19T06:55:39;19.10;99.90
5802;DHT22;2927;49.366;8.530;2023-09-19T06:58:05;19.30;1.00
5802;DHT22;2927;49.366;8.530;2023-09-19T07:00:31;19.60;1.00
5802;DHT22;2927;49.366;8.530;2023-09-19T07:03:03;19.90;1.00
5802;DHT22;2927;49.366;8.530;2023-09-19T07:05:34;20.00;1.00
5802;DHT22;2927;49.366;8.530;2023-09-19T07:08:10;20.10;1.00
5802;DHT22;2927;49.366;8.530;2023-09-19T07:10:38;20.50;1.00
5802;DHT22;2927;49.366;8.530;2023-09-19T07:13:07;20.90;1.00
5802;DHT22;2927;49.366;8.530;2023-09-19T07:15:37;21.70;50.70
5802;DHT22;2927;49.366;8.530;2023-09-19T07:18:06;23.00;1.00
5802;DHT22;2927;49.366;8.530;2023-09-19T07:20:32;24.10;1.00
5802;DHT22;2927;49.366;8.530;2023-09-19T07:22:59;24.70;99.90
5802;DHT22;2927;49.366;8.530;2023-09-19T07:25:27;25.10;99.90
5802;DHT22;2927;49.366;8.530;2023-09-19T07:27:57;25.60;99.90
5802;DHT22;2927;49.366;8.530;2023-09-19T07:30:25;26.00;99.90
5802;DHT22;2927;49.366;8.530;2023-09-19T07:32:51;26.00;99.90
5802;DHT22;2927;49.366;8.530;2023-09-19T07:35:17;26.00;99.90
5802;DHT22;2927;49.366;8.530;2023-09-19T07:37:45;26.10;88.10
5802;DHT22;2927;49.366;8.530;2023-09-19T07:40:15;26.00;86.20
5802;DHT22;2927;49.366;8.530;2023-09-19T07:42:41;26.00;83.60
5802;DHT22;2927;49.366;8.530;2023-09-19T07:45:09;26.20;72.00
5802;DHT22;2927;49.366;8.530;2023-09-19T07:47:34;26.50;23.20
5802;DHT22;2927;49.366;8.530;2023-09-19T07:50:01;26.80;1.00
5802;DHT22;2927;49.366;8.530;2023-09-19T07:52:28;26.70;1.00
5802;DHT22;2927;49.366;8.530;2023-09-19T07:54:54;27.20;1.00
5802;DHT22;2927;49.366;8.530;2023-09-19T07:57:20;27.40;1.00
5802;DHT22;2927;49.366;8.530;2023-09-19T07:59:46;27.20;1.00
5802;DHT22;2927;49.366;8.530;2023-09-19T08:02:11;26.80;1.00
5802;DHT22;2927;49.366;8.530;2023-09-19T08:04:44;26.60;1.00
5802;DHT22;2927;49.366;8.530;2023-09-19T08:07:12;26.50;1.00
5802;DHT22;2927;49.366;8.530;2023-09-19T08:09:39;26.30;1.00
5802;DHT22;2927;49.366;8.530;2023-09-19T08:12:06;26.20;1.00
5802;DHT22;2927;49.366;8.530;2023-09-19T08:14:33;26.40;1.00
5802;DHT22;2927;49.366;8.530;2023-09-19T08:16:59;26.50;1.00
5802;DHT22;2927;49.366;8.530;2023-09-19T08:19:26;26.30;1.00
5802;DHT22;2927;49.366;8.530;2023-09-19T08:21:57;26.10;1.00
5802;DHT22;2927;49.366;8.530;2023-09-19T08:24:29;25.70;1.00
5802;DHT22;2927;49.366;8.530;2023-09-19T08:26:57;25.80;1.00
5802;DHT22;2927;49.366;8.530;2023-09-19T08:29:23;25.40;1.00
5802;DHT22;2927;49.366;8.530;2023-09-19T08:31:56;25.10;1.00
5802;DHT22;2927;49.366;8.530;2023-09-19T08:34:23;25.10;1.00
5802;DHT22;2927;49.366;8.530;2023-09-19T08:36:55;24.90;1.00
5802;DHT22;2927;49.366;8.530;2023-09-19T08:39:24;24.80;1.00
5802;DHT22;2927;49.366;8.530;2023-09-19T08:42:01;24.80;1.00
5802;DHT22;2927;49.366;8.530;2023-09-19T08:44:28;25.00;1.00
5802;DHT22;2927;49.366;8.530;2023-09-19T08:47:11;25.40;1.00
5802;DHT22;2927;49.366;8.530;2023-09-19T08:52:22;25.00;1.00
5802;DHT22;2927;49.366;8.530;2023-09-19T08:54:51;24.60;1.00
5802;DHT22;2927;49.366;8.530;2023-09-19T08:57:19;24.80;1.00
5802;DHT22;2927;49.366;8.530;2023-09-19T08:59:48;25.00;1.00
5802;DHT22;2927;49.366;8.530;2023-09-19T09:02:15;25.00;1.00
5802;DHT22;2927;49.366;8.530;2023-09-19T09:04:45;24.90;1.00
5802;DHT22;2927;49.366;8.530;2023-09-19T09:07:12;25.30;1.00
5802;DHT22;2927;49.366;8.530;2023-09-19T09:09:41;25.70;1.00
5802;DHT22;2927;49.366;8.530;2023-09-19T09:12:11;25.90;1.00
5802;DHT22;2927;49.366;8.530;2023-09-19T09:14:38;26.00;1.00
5802;DHT22;2927;49.366;8.530;2023-09-19T09:17:03;26.40;1.00
5802;DHT22;2927;49.366;8.530;2023-09-19T09:19:30;26.70;1.00
5802;DHT22;2927;49.366;8.530;2023-09-19T09:22:09;26.70;1.00
5802;DHT22;2927;49.366;8.530;2023-09-19T09:24:35;27.00;1.00
5802;DHT22;2927;49.366;8.530;2023-09-19T09:27:07;26.80;1.00
5802;DHT22;2927;49.366;8.530;2023-09-19T09:29:42;26.90;1.00
5802;DHT22;2927;49.366;8.530;2023-09-19T09:32:30;27.20;1.00
5802;DHT22;2927;49.366;8.530;2023-09-19T09:35:00;27.20;1.00
5802;DHT22;2927;49.366;8.530;2023-09-19T09:37:26;27.70;1.00
5802;DHT22;2927;49.366;8.530;2023-09-19T09:40:01;27.10;1.00
5802;DHT22;2927;49.366;8.530;2023-09-19T09:42:39;27.20;1.00
5802;DHT22;2927;49.366;8.530;2023-09-19T09:47:44;27.30;1.00
5802;DHT22;2927;49.366;8.530;2023-09-19T09:50:24;26.80;1.00
5802;DHT22;2927;49.366;8.530;2023-09-19T09:52:55;26.20;1.00
5802;DHT22;2927;49.366;8.530;2023-09-19T09:55:28;25.40;1.00
5802;DHT22;2927;49.366;8.530;2023-09-19T09:58:17;25.10;1.00
5802;DHT22;2927;49.366;8.530;2023-09-19T10:00:53;25.00;1.00
5802;DHT22;2927;49.366;8.530;2023-09-19T10:03:36;25.00;1.00
5802;DHT22;2927;49.366;8.530;2023-09-19T10:06:10;25.20;1.00
5802;DHT22;2927;49.366;8.530;2023-09-19T10:09:01;25.30;1.00
5802;DHT22;2927;49.366;8.530;2023-09-19T10:11:44;25.00;1.00
5802;DHT22;2927;49.366;8.530;2023-09-19T10:14:11;25.00;1.00
5802;DHT22;2927;49.366;8.530;2023-09-19T10:16:41;25.00;1.00
5802;DHT22;2927;49.366;8.530;2023-09-19T10:19:11;25.00;1.00
5802;DHT22;2927;49.366;8.530;2023-09-19T10:21:41;25.00;1.00
5802;DHT22;2927;49.366;8.530;2023-09-19T10:24:09;24.80;1.00
5802;DHT22;2927;49.366;8.530;2023-09-19T10:26:36;24.60;1.00
5802;DHT22;2927;49.366;8.530;2023-09-19T10:29:03;24.50;1.00
5802;DHT22;2927;49.366;8.530;2023-09-19T10:31:32;24.60;1.00
5802;DHT22;2927;49.366;8.530;2023-09-19T10:34:03;24.50;1.00
5802;DHT22;2927;49.366;8.530;2023-09-19T10:36:32;24.30;1.00
5802;DHT22;2927;49.366;8.530;2023-09-19T10:39:02;24.20;1.00
5802;DHT22;2927;49.366;8.530;2023-09-19T10:41:32;24.00;1.00
5802;DHT22;2927;49.366;8.530;2023-09-19T10:44:03;23.80;1.00
5802;DHT22;2927;49.366;8.530;2023-09-19T10:46:32;23.90;1.00
5802;DHT22;2927;49.366;8.530;2023-09-19T10:49:01;23.90;1.00
5802;DHT22;2927;49.366;8.530;2023-09-19T10:51:31;24.00;1.00
5802;DHT22;2927;49.366;8.530;2023-09-19T10:54:05;23.90;1.00
5802;DHT22;2927;49.366;8.530;2023-09-19T10:56:35;24.10;1.00
5802;DHT22;2927;49.366;8.530;2023-09-19T10:59:15;24.20;1.00
5802;DHT22;2927;49.366;8.530;2023-09-19T11:01:46;24.10;1.00
5802;DHT22;2927;49.366;8.530;2023-09-19T11:04:24;24.20;1.00
5802;DHT22;2927;49.366;8.530;2023-09-19T11:07:05;24.20;1.00
5802;DHT22;2927;49.366;8.530;2023-09-19T11:09:56;24.10;1.00
5802;DHT22;2927;49.366;8.530;2023-09-19T11:26:45;23.80;1.00
5802;DHT22;2927;49.366;8.530;2023-09-19T11:29:27;23.90;1.00
5802;DHT22;2927;49.366;8.530;2023-09-19T11:31:54;23.90;1.00
5802;DHT22;2927;49.366;8.530;2023-09-19T11:37:59;23.90;1.00
5802;DHT22;2927;49.366;8.530;2023-09-19T11:40:09;24.00;1.00
5802;DHT22;2927;49.366;8.530;2023-09-19T11:42:48;24.10;1.00
5802;DHT22;2927;49.366;8.530;2023-09-19T11:48:20;24.10;1.00
5802;DHT22;2927;49.366;8.530;2023-09-19T11:50:51;24.10;1.00
5802;DHT22;2927;49.366;8.530;2023-09-19T11:53:18;24.20;1.00
5802;DHT22;2927;49.366;8.530;2023-09-19T11:55:45;24.20;1.00
5802;DHT22;2927;49.366;8.530;2023-09-19T11:58:20;24.10;1.00
5802;DHT22;2927;49.366;8.530;2023-09-19T12:00:54;24.20;1.00
5802;DHT22;2927;49.366;8.530;2023-09-19T12:03:29;24.30;1.00
5802;DHT22;2927;49.366;8.530;2023-09-19T12:05:55;24.40;1.00
5802;DHT22;2927;49.366;8.530;2023-09-19T12:08:23;24.40;1.00
5802;DHT22;2927;49.366;8.530;2023-09-19T12:10:49;24.40;1.00
5802;DHT22;2927;49.366;8.530;2023-09-19T12:13:17;24.30;1.00
5802;DHT22;2927;49.366;8.530;2023-09-19T12:15:43;24.20;1.00
5802;DHT22;2927;49.366;8.530;2023-09-19T12:18:25;24.20;1.00
5802;DHT22;2927;49.366;8.530;2023-09-19T12:20:51;24.20;1.00
5802;DHT22;2927;49.366;8.530;2023-09-19T12:23:17;24.10;1.00
5802;DHT22;2927;49.366;8.530;2023-09-19T12:25:43;24.10;1.00
5802;DHT22;2927;49.366;8.530;2023-09-19T12:28:12;24.10;1.00
5802;DHT22;2927;49.366;8.530;2023-09-19T12:30:37;24.00;1.00
5802;DHT22;2927;49.366;8.530;2023-09-19T12:33:17;24.00;1.00
5802;DHT22;2927;49.366;8.530;2023-09-19T12:35:50;23.90;1.00
5802;DHT22;2927;49.366;8.530;2023-09-19T12:38:27;24.00;1.00
5802;DHT22;2927;49.366;8.530;2023-09-19T12:41:01;23.90;1.00
5802;DHT22;2927;49.366;8.530;2023-09-19T12:43:31;23.80;1.00
5802;DHT22;2927;49.366;8.530;2023-09-19T12:46:01;23.80;1.00
5802;DHT22;2927;49.366;8.530;2023-09-19T12:48:28;24.00;1.00
5802;DHT22;2927;49.366;8.530;2023-09-19T12:51:05;24.00;1.00
5802;DHT22;2927;49.366;8.530;2023-09-19T12:53:33;24.10;1.00
5802;DHT22;2927;49.366;8.530;2023-09-19T12:56:01;24.00;1.00
5802;DHT22;2927;49.366;8.530;2023-09-19T12:58:27;23.90;1.00
5802;DHT22;2927;49.366;8.530;2023-09-19T13:00:55;23.90;1.00
5802;DHT22;2927;49.366;8.530;2023-09-19T13:05:58;24.00;1.00
5802;DHT22;2927;49.366;8.530;2023-09-19T13:11:15;24.10;1.00
5802;DHT22;2927;49.366;8.530;2023-09-19T13:14:14;24.20;1.00
5802;DHT22;2927;49.366;8.530;2023-09-19T13:17:04;24.30;1.00
5802;DHT22;2927;49.366;8.530;2023-09-19T13:19:39;24.40;1.00
5802;DHT22;2927;49.366;8.530;2023-09-19T13:24:50;24.30;1.00
5802;DHT22;2927;49.366;8.530;2023-09-19T13:27:17;24.30;1.00
5802;DHT22;2927;49.366;8.530;2023-09-19T13:29:42;24.40;1.00
5802;DHT22;2927;49.366;8.530;2023-09-19T13:32:08;24.30;1.00
5802;DHT22;2927;49.366;8.530;2023-09-19T13:34:38;24.10;1.00
5802;DHT22;2927;49.366;8.530;2023-09-19T13:37:03;24.20;1.00
5802;DHT22;2927;49.366;8.530;2023-09-19T13:39:30;24.30;1.00
5802;DHT22;2927;49.366;8.530;2023-09-19T13:41:55;24.30;1.00
5802;DHT22;2927;49.366;8.530;2023-09-19T13:44:21;24.30;1.00
5802;DHT22;2927;49.366;8.530;2023-09-19T13:46:46;24.30;1.00
5802;DHT22;2927;49.366;8.530;2023-09-19T13:49:12;24.30;1.00
5802;DHT22;2927;49.366;8.530;2023-09-19T13:51:38;24.30;1.00
5802;DHT22;2927;49.366;8.530;2023-09-19T13:54:03;24.10;1.00
5802;DHT22;2927;49.366;8.530;2023-09-19T13:56:29;24.10;1.00
5802;DHT22;2927;49.366;8.530;2023-09-19T13:58:55;24.20;1.00
5802;DHT22;2927;49.366;8.530;2023-09-19T14:01:21;24.40;1.00
5802;DHT22;2927;49.366;8.530;2023-09-19T14:03:46;24.50;1.00
5802;DHT22;2927;49.366;8.530;2023-09-19T14:06:16;24.60;1.00
5802;DHT22;2927;49.366;8.530;2023-09-19T14:08:43;24.60;1.00
5802;DHT22;2927;49.366;8.530;2023-09-19T14:11:09;24.60;1.00
5802;DHT22;2927;49.366;8.530;2023-09-19T14:13:38;24.70;1.00
5802;DHT22;2927;49.366;8.530;2023-09-19T14:16:05;24.60;1.00
5802;DHT22;2927;49.366;8.530;2023-09-19T14:18:31;24.60;1.00
5802;DHT22;2927;49.366;8.530;2023-09-19T14:20:57;24.60;1.00
5802;DHT22;2927;49.366;8.530;2023-09-19T14:23:23;24.50;1.00
5802;DHT22;2927;49.366;8.530;2023-09-19T14:25:50;24.50;1.00
5802;DHT22;2927;49.366;8.530;2023-09-19T14:28:15;24.60;1.00
5802;DHT22;2927;49.366;8.530;2023-09-19T14:30:41;24.60;1.00
5802;DHT22;2927;49.366;8.530;2023-09-19T14:33:06;24.70;1.00
5802;DHT22;2927;49.366;8.530;2023-09-19T14:35:32;24.40;1.00
5802;DHT22;2927;49.366;8.530;2023-09-19T14:37:58;24.10;1.00
5802;DHT22;2927;49.366;8.530;2023-09-19T14:40:24;24.00;1.00
5802;DHT22;2927;49.366;8.530;2023-09-19T14:42:50;24.00;1.00
5802;DHT22;2927;49.366;8.530;2023-09-19T14:45:16;23.90;1.00
5802;DHT22;2927;49.366;8.530;2023-09-19T14:47:45;23.90;1.00
5802;DHT22;2927;49.366;8.530;2023-09-19T14:50:11;24.00;1.00
5802;DHT22;2927;49.366;8.530;2023-09-19T14:52:37;24.10;1.00
5802;DHT22;2927;49.366;8.530;2023-09-19T14:55:05;24.20;1.00
5802;DHT22;2927;49.366;8.530;2023-09-19T14:57:31;24.20;1.00
5802;DHT22;2927;49.366;8.530;2023-09-19T14:59:58;24.00;1.00
5802;DHT22;2927;49.366;8.530;2023-09-19T15:02:25;23.90;1.00
5802;DHT22;2927;49.366;8.530;2023-09-19T15:04:52;23.90;1.00
5802;DHT22;2927;49.366;8.530;2023-09-19T15:07:18;23.80;1.00
5802;DHT22;2927;49.366;8.530;2023-09-19T15:09:43;23.70;1.00
5802;DHT22;2927;49.366;8.530;2023-09-19T15:12:09;23.80;1.00
5802;DHT22;2927;49.366;8.530;2023-09-19T15:14:39;23.80;1.00
5802;DHT22;2927;49.366;8.530;2023-09-19T15:17:05;23.80;1.00
5802;DHT22;2927;49.366;8.530;2023-09-19T15:19:31;23.80;1.00
5802;DHT22;2927;49.366;8.530;2023-09-19T15:21:56;23.60;1.00
5802;DHT22;2927;49.366;8.530;2023-09-19T15:24:23;23.50;1.00
5802;DHT22;2927;49.366;8.530;2023-09-19T15:26:52;23.50;1.00
5802;DHT22;2927;49.366;8.530;2023-09-19T15:29:17;23.50;1.00
5802;DHT22;2927;49.366;8.530;2023-09-19T15:31:43;23.50;1.00
5802;DHT22;2927;49.366;8.530;2023-09-19T15:34:09;23.50;1.00
5802;DHT22;2927;49.366;8.530;2023-09-19T15:36:34;23.50;1.00
5802;DHT22;2927;49.366;8.530;2023-09-19T15:39:04;23.50;1.00
5802;DHT22;2927;49.366;8.530;2023-09-19T15:41:40;23.50;1.00
5802;DHT22;2927;49.366;8.530;2023-09-19T15:44:17;23.40;1.00
5802;DHT22;2927;49.366;8.530;2023-09-19T15:46:44;23.40;1.00
5802;DHT22;2927;49.366;8.530;2023-09-19T15:49:10;23.30;1.00
5802;DHT22;2927;49.366;8.530;2023-09-19T15:51:36;23.30;1.00
5802;DHT22;2927;49.366;8.530;2023-09-19T15:54:07;23.40;1.00
5802;DHT22;2927;49.366;8.530;2023-09-19T15:56:33;23.30;1.00
5802;DHT22;2927;49.366;8.530;2023-09-19T15:59:02;23.40;1.00
5802;DHT22;2927;49.366;8.530;2023-09-19T16:01:28;23.30;1.00
5802;DHT22;2927;49.366;8.530;2023-09-19T16:03:54;23.30;1.00
5802;DHT22;2927;49.366;8.530;2023-09-19T16:06:26;23.30;1.00
5802;DHT22;2927;49.366;8.530;2023-09-19T16:08:54;23.30;1.00
5802;DHT22;2927;49.366;8.530;2023-09-19T16:11:21;23.40;1.00
5802;DHT22;2927;49.366;8.530;2023-09-19T16:13:48;23.40;1.00
5802;DHT22;2927;49.366;8.530;2023-09-19T16:16:17;23.40;1.00
5802;DHT22;2927;49.366;8.530;2023-09-19T16:18:56;23.50;1.00
5802;DHT22;2927;49.366;8.530;2023-09-19T16:21:23;23.40;1.00
5802;DHT22;2927;49.366;8.530;2023-09-19T16:23:50;23.40;1.00
5802;DHT22;2927;49.366;8.530;2023-09-19T16:26:17;23.30;1.00
5802;DHT22;2927;49.366;8.530;2023-09-19T16:28:49;23.20;1.00
5802;DHT22;2927;49.366;8.530;2023-09-19T16:31:15;23.20;1.00
5802;DHT22;2927;49.366;8.530;2023-09-19T16:33:45;23.10;1.00
5802;DHT22;2927;49.366;8.530;2023-09-19T16:36:12;23.00;1.00
5802;DHT22;2927;49.366;8.530;2023-09-19T16:38:38;22.90;1.00
5802;DHT22;2927;49.366;8.530;2023-09-19T16:41:05;22.80;1.00
5802;DHT22;2927;49.366;8.530;2023-09-19T16:43:31;22.70;1.00
5802;DHT22;2927;49.366;8.530;2023-09-19T16:46:02;22.60;1.00
5802;DHT22;2927;49.366;8.530;2023-09-19T16:48:28;22.50;1.00
5802;DHT22;2927;49.366;8.530;2023-09-19T16:51:01;22.40;1.00
5802;DHT22;2927;49.366;8.530;2023-09-19T16:53:29;22.30;1.00
5802;DHT22;2927;49.366;8.530;2023-09-19T16:55:54;22.20;1.00
5802;DHT22;2927;49.366;8.530;2023-09-19T16:58:22;22.10;1.00
5802;DHT22;2927;49.366;8.530;2023-09-19T17:00:48;22.00;1.00
5802;DHT22;2927;49.366;8.530;2023-09-19T17:03:14;22.00;12.30
5802;DHT22;2927;49.366;8.530;2023-09-19T17:05:40;21.80;24.40
5802;DHT22;2927;49.366;8.530;2023-09-19T17:08:06;21.70;35.40
5802;DHT22;2927;49.366;8.530;2023-09-19T17:10:33;21.60;58.90